Airfield :
LOGIN :

Register | Disclaimer

   EN    FR    IT 

 










Legend :    VFR   Marginal VFR   IFR   Intensive IFR   Very Intensive IFR
Visi :
Ceiling :
>= 8 km
>= 3000ft
5 to 8 km
1000 to 3000 ft
1500m to 5 km
500 to 1000 ft
800 to 1500m
200 to 500 ft
< 800m
< 200 ft
Symbols :   Thunderstorms  Fog  Heavy snow  Heavy precipitations  Wind > 20 kt
SIGMETs :     Misc.  Thunderstorms  Icing  Turbulence  Mountain Waves  Volcanic Ashes






- Airport Elevation : 359 ft
- IATA code : BVA


LFOB - Beauvais

CURRENT METAR :
  • 220030Z AUTO 30005KT 3600 -RA BR BKN005 BKN010 BKN014 11/11 Q1001 TEMPO RADZ BECMG 22010KT

EXPIRED METARs :
  • 220000Z AUTO 22006KT 9999 -RA OVC007 11/11 Q1002 TEMPO 3000 RADZ
  • 212330Z AUTO 23005KT 190V280 9000 -RA OVC007 11/11 Q1002 TEMPO 3000 RADZ
  • 212300Z AUTO 21008KT 8000 -RA BKN007 OVC011 11/11 Q1003 TEMPO 3000 RADZ
  • 212230Z AUTO 22007KT 7000 -RA OVC006 11/10 Q1003 TEMPO 3000 RADZ
  • 212200Z AUTO 21009KT 8000 -RA OVC006 11/10 Q1004 TEMPO 3000 RADZ
  • 212130Z AUTO 21009KT 9999 OVC006 10/10 Q1004 TEMPO 3000 RADZ
  • 212100Z AUTO 21010KT 9999 -RADZ OVC006 10/10 Q1004 TEMPO 3000 RADZ
  • 212030Z AUTO 21011KT 6000 -DZ OVC006 10/10 Q1005 TEMPO 3000 RADZ
  • 212000Z AUTO 21013KT 180V240 7000 -DZ OVC007 10/09 Q1005 TEMPO 20015G28KT 3000 RADZ
  • 211930Z AUTO 21014KT 9999 -RA OVC008 10/09 Q1005 TEMPO 20015G28KT 3000 RADZ

TAF TAF LFOB
Valid from the 22 at 00:00 until the 23 at 00:00 UTC


212300Z 2200/2224 22010KT 9999 OVC012
TEMPO 2200/2212 3000 RADZ BKN007
BECMG 2210/2212 20015G30KT BKN020
TEMPO 2212/2218 3000 SHRA SCT012 BKN020CB
PROB30
TEMPO 2214/2216 1200 TSRA
TEMPO 2214/2218 25025G45KT
PROB30
TEMPO 2216/2218 25025G55KT
ATIS : +33 3 44 11 49 28



MET'MAP, your aeronautical weather chart ! - Copyright ORBIFLY December 2007 - Disclaimer

ORBIFLY MET'MAP TEAM :

Programming & Development : Alexandra Zaïnal
Original concept : Baudouin d'Aumeries
Technical & hardware support : Manuel Goepfert
Assistance : Marc-Olivier Méhu




SOURCES & CREDITS :

   NOAA